Time;durP1;ratioP1;P1;durP2;ratioP2;P2;SDS_P1;SDS_P2;PMS_P1;PMS_P2;Temp;Humidity;BMP_temperature;BMP_pressure;BME280_temperature;BME280_humidity;BME280_pressure;Samples;Min_cycle;Max_cycle;Signal;HPM_P1;HPM_P2
2022/07/23 00:04:14;;;;;;;5.13;2.10;;;;;;;18.34;100.00;98446.22;15283375;19;20018;-55
2022/07/23 00:09:22;;;;;;;4.28;2.20;;;;;;;18.32;100.00;98443.72;15280400;19;20030;-54
2022/07/23 00:14:27;;;;;;;2.85;1.83;;;;;;;18.31;100.00;98443.91;15286433;19;20034;-55
2022/07/23 00:19:32;;;;;;;2.70;1.80;;;;;;;18.24;100.00;98451.25;15273615;19;20015;-58
2022/07/23 00:24:39;;;;;;;4.70;1.75;;;;;;;18.24;100.00;98429.44;15280540;19;20345;-58
2022/07/23 00:29:44;;;;;;;4.80;2.10;;;;;;;18.18;100.00;98426.50;15276028;19;20018;-57
2022/07/23 00:34:49;;;;;;;3.13;1.92;;;;;;;18.17;100.00;98413.91;15283809;19;20010;-55
2022/07/23 00:39:57;;;;;;;5.95;2.17;;;;;;;18.11;100.00;98413.94;15278882;19;20018;-54
2022/07/23 00:45:02;;;;;;;4.07;1.90;;;;;;;18.05;100.00;98407.41;15282883;19;20042;-58
2022/07/23 00:50:10;;;;;;;3.38;2.10;;;;;;;18.06;100.00;98397.38;15272774;19;20011;-54
2022/07/23 00:55:17;;;;;;;3.00;1.98;;;;;;;18.02;100.00;98369.69;15278430;19;20010;-58
2022/07/23 01:00:22;;;;;;;2.50;1.90;;;;;;;18.03;100.00;98368.66;15276298;19;20030;-55
2022/07/23 01:05:27;;;;;;;3.50;2.03;;;;;;;18.01;100.00;98371.56;15281492;19;20546;-56
2022/07/23 01:10:35;;;;;;;2.92;1.80;;;;;;;18.02;100.00;98375.16;15277977;19;20028;-55
2022/07/23 01:15:41;;;;;;;4.32;2.30;;;;;;;18.01;100.00;98373.47;15279474;19;20487;-55
2022/07/23 01:20:46;;;;;;;3.55;2.00;;;;;;;18.02;100.00;98383.31;15269898;19;20017;-56
2022/07/23 01:25:55;;;;;;;2.38;1.90;;;;;;;17.93;100.00;98381.84;15276942;19;20467;-56
2022/07/23 01:31:02;;;;;;;4.50;2.20;;;;;;;17.87;100.00;98373.44;15268585;19;20015;-57
2022/07/23 01:36:11;;;;;;;2.83;2.10;;;;;;;17.86;100.00;98358.13;15274930;19;20078;-55
2022/07/23 01:41:19;;;;;;;3.35;1.98;;;;;;;17.88;100.00;98344.28;15276256;19;20019;-58
2022/07/23 01:46:25;;;;;;;3.55;1.90;;;;;;;17.86;100.00;98349.97;15277428;19;20025;-57
2022/07/23 01:51:31;;;;;;;3.53;2.22;;;;;;;17.81;100.00;98366.13;15278030;19;20007;-56
2022/07/23 01:56:44;;;;;;;4.22;2.50;;;;;;;17.72;100.00;98356.44;15270926;19;20014;-56
2022/07/23 02:01:50;;;;;;;4.38;2.40;;;;;;;17.54;100.00;98376.13;15269761;19;20014;-59
2022/07/23 02:06:56;;;;;;;4.95;2.35;;;;;;;17.32;100.00;98379.03;15275870;19;20038;-55
2022/07/23 02:12:06;;;;;;;2.53;2.25;;;;;;;17.23;100.00;98402.06;15274869;19;20003;-58
2022/07/23 02:17:11;;;;;;;4.03;2.42;;;;;;;17.17;100.00;98397.44;15276602;19;20011;-57
2022/07/23 02:22:16;;;;;;;4.03;2.20;;;;;;;17.16;100.00;98398.47;15274119;19;20365;-59
2022/07/23 02:27:23;;;;;;;4.10;2.38;;;;;;;17.13;100.00;98382.56;15269203;19;20018;-60
2022/07/23 02:32:30;;;;;;;6.10;2.60;;;;;;;17.03;100.00;98377.50;15270745;19;20035;-54
2022/07/23 02:37:35;;;;;;;2.92;2.40;;;;;;;16.96;100.00;98380.19;15272598;19;20011;-57
2022/07/23 02:42:43;;;;;;;4.90;2.70;;;;;;;16.99;100.00;98406.16;15274974;19;20010;-54
2022/07/23 02:47:48;;;;;;;4.18;2.35;;;;;;;16.99;100.00;98400.72;15282067;19;20074;-55
2022/07/23 02:52:53;;;;;;;4.10;2.40;;;;;;;17.07;100.00;98354.28;15289953;19;20085;-59
2022/07/23 02:58:01;;;;;;;5.90;3.00;;;;;;;17.10;100.00;98356.59;15280790;19;20018;-56
2022/07/23 03:03:07;;;;;;;3.92;2.70;;;;;;;17.12;100.00;98346.31;15286440;19;21339;-56
2022/07/23 03:08:12;;;;;;;3.33;3.03;;;;;;;17.03;100.00;98347.53;15281802;19;20071;-58
2022/07/23 03:13:23;;;;;;;4.25;2.80;;;;;;;17.10;100.00;98343.81;15288323;19;20039;-58
2022/07/23 03:18:29;;;;;;;6.03;2.80;;;;;;;17.03;100.00;98347.53;15283513;19;20011;-55
2022/07/23 03:23:35;;;;;;;4.40;2.60;;;;;;;17.01;100.00;98341.47;15285988;19;20015;-56
2022/07/23 03:28:42;;;;;;;4.72;2.72;;;;;;;16.90;100.00;98375.53;15285363;19;20023;-57
2022/07/23 03:33:48;;;;;;;6.28;2.78;;;;;;;16.46;100.00;98500.00;15282215;19;20441;-60
2022/07/23 03:38:54;;;;;;;5.03;2.55;;;;;;;16.27;100.00;98539.56;15276828;19;20022;-59
2022/07/23 03:44:02;;;;;;;3.55;2.60;;;;;;;16.17;100.00;98518.13;15282352;19;20022;-56
2022/07/23 03:49:07;;;;;;;12.40;3.80;;;;;;;16.09;100.00;98402.28;15281342;19;20018;-52
2022/07/23 03:54:12;;;;;;;8.60;4.50;;;;;;;15.72;100.00;98432.22;15286807;19;20078;-51
2022/07/23 03:59:20;;;;;;;6.80;4.05;;;;;;;15.53;100.00;98392.16;15280368;19;20018;-54
2022/07/23 04:04:28;;;;;;;7.60;4.93;;;;;;;15.49;100.00;98382.69;15274699;19;20014;-53
2022/07/23 04:09:34;;;;;;;9.23;5.20;;;;;;;15.43;100.00;98386.19;15276080;19;20093;-61
2022/07/23 04:14:42;;;;;;;7.60;5.50;;;;;;;15.43;100.00;98397.88;15286000;19;20041;-57
2022/07/23 04:19:47;;;;;;;7.85;5.18;;;;;;;15.52;100.00;98406.75;15279691;19;20014;-57
2022/07/23 04:24:55;;;;;;;6.60;4.85;;;;;;;15.55;100.00;98428.09;15279283;19;20095;-57
2022/07/23 04:30:03;;;;;;;8.40;5.22;;;;;;;15.59;100.00;98485.56;15274370;19;20017;-58
2022/07/23 04:35:09;;;;;;;6.55;4.40;;;;;;;15.46;100.00;98476.25;15277198;19;20019;-55
2022/07/23 04:40:15;;;;;;;7.55;5.05;;;;;;;15.61;100.00;98432.75;15276636;19;20093;-58
2022/07/23 04:45:24;;;;;;;5.47;4.78;;;;;;;15.71;100.00;98421.56;15271655;19;20014;-58
2022/07/23 04:50:35;;;;;;;6.75;4.10;;;;;;;15.81;100.00;98415.81;15274865;19;20015;-55
2022/07/23 04:55:42;;;;;;;7.65;4.20;;;;;;;15.92;100.00;98434.34;15285267;19;20109;-56
2022/07/23 05:00:50;;;;;;;6.50;3.47;;;;;;;16.06;100.00;98407.25;15277300;19;20077;-59
2022/07/23 05:05:56;;;;;;;4.38;3.60;;;;;;;16.17;100.00;98429.31;15276885;19;20021;-58
2022/07/23 05:11:03;;;;;;;4.53;3.25;;;;;;;16.22;100.00;98455.06;15278757;19;20478;-58
2022/07/23 05:16:12;;;;;;;6.95;3.78;;;;;;;16.15;100.00;98446.84;15273550;19;20487;-52
2022/07/23 05:21:20;;;;;;;5.00;3.53;;;;;;;16.21;100.00;98418.88;15278546;19;20050;-59
2022/07/23 05:26:26;;;;;;;4.63;3.33;;;;;;;16.29;100.00;98455.94;15279773;19;20015;-61
2022/07/23 05:31:36;;;;;;;4.38;3.45;;;;;;;16.28;100.00;98474.16;15278806;19;20026;-58
2022/07/23 05:36:43;;;;;;;5.25;3.90;;;;;;;16.19;100.00;98472.59;15277619;19;20018;-54
2022/07/23 05:41:49;;;;;;;6.10;4.20;;;;;;;16.30;100.00;98487.53;15272506;19;20018;-55
2022/07/23 05:46:57;;;;;;;8.13;4.57;;;;;;;16.26;100.00;98506.13;15268784;19;20481;-54
2022/07/23 05:52:07;;;;;;;7.90;5.10;;;;;;;16.18;100.00;98493.50;15278040;19;20018;-55
2022/07/23 05:57:37;;;;;;;8.20;4.63;;;;;;;16.29;100.00;98480.41;15275043;19;20014;-56
2022/07/23 06:02:46;;;;;;;6.85;3.60;;;;;;;16.35;100.00;98466.00;15273099;19;20015;-58
2022/07/23 06:08:00;;;;;;;4.10;3.20;;;;;;;16.48;100.00;98451.69;15274582;19;20078;-59
2022/07/23 06:13:07;;;;;;;5.43;2.80;;;;;;;16.69;100.00;98436.31;15266462;19;20014;-58
2022/07/23 06:18:16;;;;;;;3.90;2.78;;;;;;;16.84;100.00;98461.53;15265565;19;20081;-56
2022/07/23 06:23:22;;;;;;;7.03;3.03;;;;;;;16.93;100.00;98457.59;15273188;19;20400;-54
2022/07/23 06:28:29;;;;;;;6.35;2.88;;;;;;;17.04;100.00;98458.09;15269562;19;20106;-52
2022/07/23 06:33:37;;;;;;;4.45;2.38;;;;;;;17.27;100.00;98473.28;15273788;19;20017;-56
2022/07/23 06:38:43;;;;;;;4.10;2.33;;;;;;;17.55;100.00;98465.84;15269788;19;20050;-57
2022/07/23 06:43:50;;;;;;;5.50;2.45;;;;;;;17.72;100.00;98454.53;15264539;19;20011;-62
2022/07/23 06:48:57;;;;;;;3.47;2.20;;;;;;;17.71;100.00;98463.75;14757614;19;10001820;-56
2022/07/23 06:54:06;;;;;;;3.75;2.17;;;;;;;17.80;100.00;98453.50;15266008;19;20010;-58
2022/07/23 06:59:11;;;;;;;4.18;2.40;;;;;;;17.84;100.00;98461.06;15267956;19;20388;-54
2022/07/23 07:04:22;;;;;;;5.43;2.30;;;;;;;17.95;100.00;98458.75;15270556;19;20015;-55
2022/07/23 07:09:27;;;;;;;5.07;2.60;;;;;;;17.95;100.00;98478.69;15268545;19;20018;-54
2022/07/23 07:14:32;;;;;;;5.68;2.50;;;;;;;18.03;100.00;98477.69;15275557;19;20014;-55
2022/07/23 07:19:39;;;;;;;3.30;2.40;;;;;;;18.06;100.00;98474.53;15263481;19;20615;-59
2022/07/23 07:24:45;;;;;;;5.00;2.13;;;;;;;18.22;100.00;98486.06;15265014;19;20021;-60
2022/07/23 07:29:50;;;;;;;5.38;2.50;;;;;;;18.43;100.00;98494.03;15267764;19;20006;-62
2022/07/23 07:34:57;;;;;;;3.10;2.13;;;;;;;18.69;100.00;98499.69;15282681;19;20010;-62
2022/07/23 07:40:03;;;;;;;3.55;2.00;;;;;;;18.83;100.00;98492.31;15279882;19;20355;-59
2022/07/23 07:45:09;;;;;;;2.95;2.17;;;;;;;18.94;100.00;98497.16;15283701;19;20014;-60
2022/07/23 07:50:16;;;;;;;4.05;2.50;;;;;;;19.16;100.00;98496.88;15275629;19;20039;-60
2022/07/23 07:55:21;;;;;;;3.88;2.30;;;;;;;19.42;100.00;98492.38;15283479;19;20014;-62
2022/07/23 08:00:27;;;;;;;3.50;2.28;;;;;;;19.64;100.00;98487.44;15282919;19;20018;-59
2022/07/23 08:05:35;;;;;;;4.07;2.47;;;;;;;19.78;100.00;98491.75;15283833;19;20024;-59
2022/07/23 08:10:40;;;;;;;3.38;2.70;;;;;;;19.95;100.00;98489.34;15280271;19;20014;-58
2022/07/23 08:15:46;;;;;;;4.45;2.88;;;;;;;19.84;100.00;98503.69;15284078;19;20014;-60
2022/07/23 08:20:55;;;;;;;3.63;3.10;;;;;;;19.63;100.00;98496.69;15279742;19;20014;-63
2022/07/23 08:26:00;;;;;;;7.13;2.97;;;;;;;19.67;100.00;98498.75;15281353;19;20023;-63
2022/07/23 08:31:06;;;;;;;3.83;3.13;;;;;;;19.86;100.00;98486.06;15278690;19;20022;-59
2022/07/23 08:36:13;;;;;;;8.05;3.10;;;;;;;19.91;100.00;98503.69;15285829;19;21455;-58
2022/07/23 08:41:19;;;;;;;4.70;3.33;;;;;;;19.89;100.00;98517.59;15282864;19;20086;-59
2022/07/23 08:46:25;;;;;;;7.60;4.20;;;;;;;19.82;100.00;98522.22;15277734;19;20025;-62
2022/07/23 08:51:33;;;;;;;4.32;3.40;;;;;;;19.79;100.00;98528.13;15277548;19;20014;-61
2022/07/23 08:56:38;;;;;;;4.68;4.05;;;;;;;19.61;100.00;98537.88;15282936;19;20018;-57
2022/07/23 09:01:43;;;;;;;5.88;5.38;;;;;;;19.09;100.00;98533.25;15274405;19;20011;-60
2022/07/23 09:06:51;;;;;;;7.47;5.35;;;;;;;18.96;100.00;98544.19;15279431;19;20022;-60
2022/07/23 09:12:05;;;;;;;8.23;5.82;;;;;;;19.14;100.00;98537.22;15282255;19;20569;-57
2022/07/23 09:17:14;;;;;;;5.78;5.22;;;;;;;19.19;100.00;98540.16;15279014;19;20022;-58
2022/07/23 09:22:26;;;;;;;6.15;5.55;;;;;;;19.01;100.00;98555.31;15275191;19;20397;-58
2022/07/23 09:27:50;;;;;;;5.68;5.10;;;;;;;19.12;100.00;98544.78;15266723;19;20421;-54
2022/07/23 09:33:13;;;;;;;5.70;4.78;;;;;;;19.24;100.00;98538.44;15272748;19;20362;-59
2022/07/23 09:38:22;;;;;;;7.30;5.40;;;;;;;19.54;100.00;98546.09;15273704;19;20368;-58
2022/07/23 09:43:30;;;;;;;6.00;5.30;;;;;;;19.71;100.00;98551.09;15272842;19;20059;-58
2022/07/23 09:48:39;;;;;;;5.95;5.45;;;;;;;19.54;100.00;98553.47;15276010;19;20022;-59
2022/07/23 09:53:46;;;;;;;6.20;5.60;;;;;;;19.60;100.00;98551.78;15254141;19;20347;-56
2022/07/23 09:59:01;;;;;;;5.50;5.00;;;;;;;19.73;100.00;98550.88;15265883;19;20029;-56
2022/07/23 10:04:10;;;;;;;7.25;5.47;;;;;;;19.90;100.00;98549.34;15258631;19;20571;-54
2022/07/23 10:09:52;;;;;;;6.00;5.43;;;;;;;20.11;100.00;98553.63;15257154;19;20022;-56
2022/07/23 10:15:33;;;;;;;6.00;5.40;;;;;;;19.86;100.00;98551.69;15259484;19;20021;-57
2022/07/23 10:20:38;;;;;;;6.65;5.60;;;;;;;19.84;100.00;98559.22;15270359;19;20042;-56
2022/07/23 10:25:53;;;;;;;6.57;5.15;;;;;;;19.91;100.00;98566.56;15272800;19;20050;-58
2022/07/23 10:31:07;;;;;;;5.15;4.65;;;;;;;19.94;100.00;98553.31;15269647;19;20455;-58
2022/07/23 10:36:20;;;;;;;5.38;4.28;;;;;;;19.83;100.00;98573.09;15270213;19;20030;-60
2022/07/23 10:41:40;;;;;;;5.22;4.72;;;;;;;19.42;100.00;98579.78;15274523;19;20010;-57
2022/07/23 10:52:28;;;;;;;6.03;3.90;;;;;;;20.30;100.00;98573.69;15273853;19;20007;-58
2022/07/23 10:57:50;;;;;;;5.10;4.35;;;;;;;20.51;100.00;98563.47;15275003;19;20349;-60
2022/07/23 11:02:58;;;;;;;4.07;3.25;;;;;;;20.99;100.00;98563.94;15267001;19;20027;-55
2022/07/23 11:08:35;;;;;;;3.92;3.22;;;;;;;21.51;100.00;98555.34;15277273;19;20010;-59
2022/07/23 11:13:47;;;;;;;4.22;3.63;;;;;;;21.63;100.00;98550.81;15288594;19;20014;-60
2022/07/23 11:19:10;;;;;;;3.85;3.53;;;;;;;21.84;100.00;98543.16;15283365;19;20090;-59
2022/07/23 11:24:16;;;;;;;7.47;3.90;;;;;;;22.07;100.00;98541.56;15287349;19;20014;-58
2022/07/23 11:29:57;;;;;;;3.53;3.10;;;;;;;22.35;100.00;98549.16;15281759;19;20025;-59
2022/07/23 11:35:22;;;;;;;3.10;2.80;;;;;;;22.75;100.00;98558.69;15281909;19;20014;-58
2022/07/23 11:40:28;;;;;;;3.08;2.60;;;;;;;23.05;100.00;98552.25;15280175;19;20022;-58
2022/07/23 11:45:36;;;;;;;3.50;2.90;;;;;;;22.97;100.00;98549.84;15261715;19;20024;-58
2022/07/23 11:50:44;;;;;;;4.03;3.10;;;;;;;22.95;100.00;98555.59;15278408;19;20015;-58
2022/07/23 11:55:49;;;;;;;3.45;2.80;;;;;;;23.22;100.00;98542.22;15283787;19;20018;-57
2022/07/23 12:00:58;;;;;;;3.45;2.70;;;;;;;23.16;100.00;98542.31;15282709;19;20011;-57
2022/07/23 12:06:06;;;;;;;3.20;2.90;;;;;;;23.03;100.00;98544.22;15274377;19;20018;-55
2022/07/23 12:11:15;;;;;;;3.33;2.83;;;;;;;23.15;100.00;98548.88;15281210;19;20014;-57
2022/07/23 12:16:20;;;;;;;3.47;2.90;;;;;;;23.08;100.00;98551.75;15277153;19;20038;-58
2022/07/23 12:21:29;;;;;;;4.85;3.20;;;;;;;23.01;100.00;98540.88;15279361;19;20010;-57
2022/07/23 12:26:35;;;;;;;3.72;3.15;;;;;;;23.13;100.00;98540.88;15276460;19;20022;-57
2022/07/23 12:31:41;;;;;;;4.63;3.10;;;;;;;23.48;100.00;98534.50;15277522;19;20046;-58
2022/07/23 12:36:50;;;;;;;3.75;3.08;;;;;;;23.52;100.00;98532.09;15279857;19;20093;-57
2022/07/23 12:41:56;;;;;;;3.15;2.85;;;;;;;23.26;100.00;98530.75;15274531;19;20014;-57
2022/07/23 12:47:01;;;;;;;2.83;2.63;;;;;;;22.88;100.00;98543.84;15271363;19;20026;-57
2022/07/23 12:52:18;;;;;;;6.80;2.90;;;;;;;22.93;100.00;98527.50;15279836;19;20611;-56
2022/07/23 12:57:47;;;;;;;4.97;2.28;;;;;;;22.86;100.00;98529.56;15278055;19;20023;-58
2022/07/23 13:02:53;;;;;;;2.53;2.33;;;;;;;22.91;100.00;98524.16;15279321;19;20023;-57
2022/07/23 13:08:02;;;;;;;2.42;2.22;;;;;;;23.06;100.00;98526.41;15275180;19;20018;-58
2022/07/23 13:13:11;;;;;;;2.42;2.00;;;;;;;23.58;100.00;98528.38;15274297;19;20018;-57
2022/07/23 13:18:20;;;;;;;2.95;2.17;;;;;;;23.76;100.00;98516.34;15273069;19;20014;-57
2022/07/23 13:23:30;;;;;;;3.25;2.15;;;;;;;24.14;100.00;98527.84;15278928;19;20473;-58
2022/07/23 13:28:39;;;;;;;3.25;1.90;;;;;;;24.64;100.00;98526.19;15274367;19;20015;-56
2022/07/23 13:33:46;;;;;;;2.10;1.90;;;;;;;24.93;100.00;98515.91;15275685;19;20015;-57
2022/07/23 13:38:58;;;;;;;2.05;1.95;;;;;;;24.62;100.00;98518.19;15274627;19;20043;-57
2022/07/23 13:44:08;;;;;;;3.22;1.80;;;;;;;25.09;100.00;98513.41;15271499;19;20038;-57
2022/07/23 13:49:16;;;;;;;2.03;1.80;;;;;;;25.21;100.00;98510.50;15272172;19;20058;-57
2022/07/23 13:54:29;;;;;;;2.58;1.90;;;;;;;24.91;100.00;98515.34;15273468;19;20136;-57
2022/07/23 13:59:35;;;;;;;1.75;1.60;;;;;;;25.33;100.00;98518.69;15269568;19;20015;-58
2022/07/23 14:10:35;;;;;;;;;;;;;;;25.50;100.00;98508.44;15270786;19;20017;-57
2022/07/23 14:15:42;;;;;;;3.00;1.40;;;;;;;25.79;100.00;98505.47;15272970;19;20458;-60
2022/07/23 14:20:47;;;;;;;1.70;1.60;;;;;;;26.06;98.64;98521.19;15274824;19;20014;-57
2022/07/23 14:25:56;;;;;;;3.42;1.90;;;;;;;25.87;86.92;98517.97;15270703;19;20082;-57
2022/07/23 14:31:01;;;;;;;1.92;1.80;;;;;;;25.92;93.92;98520.75;15270756;19;20018;-57
2022/07/23 14:36:07;;;;;;;1.92;1.73;;;;;;;25.51;97.60;98510.09;15274879;19;20018;-60
2022/07/23 14:41:22;;;;;;;2.40;1.80;;;;;;;25.14;97.74;98518.97;15273637;19;20471;-60
2022/07/23 14:46:32;;;;;;;2.58;1.70;;;;;;;25.12;100.00;98509.28;15266309;19;20043;-61
2022/07/23 14:51:37;;;;;;;1.90;1.65;;;;;;;25.59;94.82;98506.06;15273842;19;20018;-60
2022/07/23 14:56:45;;;;;;;2.17;1.45;;;;;;;26.14;82.80;98511.63;15269909;19;20015;-60
2022/07/23 15:01:51;;;;;;;1.52;1.40;;;;;;;26.28;79.53;98514.81;15273548;19;20730;-60
2022/07/23 15:06:57;;;;;;;2.45;1.55;;;;;;;26.57;74.74;98503.44;15270881;19;20026;-62
2022/07/23 15:12:06;;;;;;;1.77;1.40;;;;;;;26.67;73.86;98509.03;15274541;19;20433;-61
2022/07/23 15:17:16;;;;;;;1.80;1.33;;;;;;;26.74;69.60;98514.34;15270615;19;20039;-61
2022/07/23 15:22:21;;;;;;;1.45;1.27;;;;;;;26.89;68.16;98502.56;15264571;19;20018;-62
2022/07/23 15:27:30;;;;;;;2.15;1.25;;;;;;;26.61;66.09;98499.06;15263010;19;20040;-60
2022/07/23 15:32:37;;;;;;;4.00;1.40;;;;;;;26.65;68.28;98505.69;15271372;19;20007;-62
2022/07/23 15:37:43;;;;;;;1.50;1.10;;;;;;;26.61;68.99;98501.81;15269546;19;20015;-62
2022/07/23 15:43:11;;;;;;;2.03;1.35;;;;;;;26.64;66.04;98505.97;15272881;19;20010;-62
2022/07/23 15:48:22;;;;;;;1.67;1.20;;;;;;;26.80;67.60;98490.34;15267510;19;20435;-62
2022/07/23 15:53:27;;;;;;;1.63;1.20;;;;;;;27.26;64.80;98496.16;15264433;19;20118;-64
2022/07/23 15:58:43;;;;;;;2.80;1.13;;;;;;;26.97;61.20;98481.88;15278535;19;20023;-63
2022/07/23 16:03:49;;;;;;;1.48;0.93;;;;;;;27.13;59.22;98485.56;15284266;19;20038;-61
2022/07/23 18:40:14;;;;;;;1.33;0.80;;;;;;;24.72;57.89;98558.03;15281125;19;20014;-58
2022/07/23 18:45:19;;;;;;;2.92;0.70;;;;;;;24.46;58.50;98557.56;15271986;19;20035;-59
2022/07/23 18:50:24;;;;;;;1.20;0.70;;;;;;;24.20;58.62;98564.53;15270908;19;20010;-59
2022/07/23 18:55:32;;;;;;;3.17;0.80;;;;;;;23.88;59.82;98568.59;15274722;19;20038;-58
2022/07/23 19:00:39;;;;;;;0.85;0.60;;;;;;;23.63;61.73;98580.75;15270706;19;20111;-57
2022/07/23 19:05:45;;;;;;;1.40;0.80;;;;;;;23.40;62.96;98570.63;15267942;19;20026;-59
2022/07/23 19:10:53;;;;;;;0.70;0.70;;;;;;;23.36;66.15;98592.25;15271504;19;20025;-56
2022/07/23 19:16:00;;;;;;;1.55;0.90;;;;;;;23.18;75.55;98600.63;15269611;19;20010;-58
2022/07/23 19:21:08;;;;;;;1.98;1.00;;;;;;;22.97;95.51;98602.03;15267590;19;20022;-59
2022/07/23 19:26:16;;;;;;;1.52;1.17;;;;;;;22.81;100.00;98609.06;15270905;19;20459;-59
2022/07/23 19:31:21;;;;;;;1.95;1.20;;;;;;;22.64;100.00;98618.00;15281062;19;20014;-58
2022/07/23 19:36:27;;;;;;;3.00;1.15;;;;;;;22.57;100.00;98623.59;15281791;19;20127;-55
2022/07/23 19:41:36;;;;;;;2.63;1.40;;;;;;;22.42;100.00;98632.25;15277675;19;20011;-57
2022/07/23 19:46:41;;;;;;;1.88;1.33;;;;;;;22.27;100.00;98635.41;15276765;19;20689;-57
2022/07/23 19:51:46;;;;;;;1.90;1.20;;;;;;;22.13;100.00;98640.25;15280790;19;20034;-57
2022/07/23 19:56:55;;;;;;;1.55;1.20;;;;;;;22.02;100.00;98643.78;15284588;19;20014;-57
2022/07/23 20:02:00;;;;;;;2.70;1.00;;;;;;;21.93;100.00;98640.50;15283051;19;20006;-56
2022/07/23 20:07:08;;;;;;;3.35;0.93;;;;;;;21.84;100.00;98645.44;15282689;19;20027;-58
2022/07/23 20:12:16;;;;;;;2.28;0.80;;;;;;;21.70;100.00;98661.22;15273350;19;20043;-59
2022/07/23 20:17:21;;;;;;;3.30;0.93;;;;;;;21.48;100.00;98666.28;15279437;19;20019;-57
2022/07/23 20:22:26;;;;;;;3.40;0.90;;;;;;;21.43;100.00;98668.88;15279179;19;20010;-57
2022/07/23 20:27:35;;;;;;;1.95;0.88;;;;;;;21.27;100.00;98683.13;15280841;19;20006;-55
2022/07/23 20:32:41;;;;;;;2.30;1.00;;;;;;;21.09;100.00;98684.78;15278191;19;20022;-57
2022/07/23 20:37:48;;;;;;;1.73;1.00;;;;;;;21.00;100.00;98692.44;15281603;19;20014;-56
2022/07/23 20:42:58;;;;;;;5.40;0.90;;;;;;;20.69;100.00;98702.31;15271148;19;20482;-58
2022/07/23 20:48:03;;;;;;;1.23;0.90;;;;;;;20.52;100.00;98712.09;15277548;19;20007;-57
2022/07/23 20:53:08;;;;;;;2.75;1.23;;;;;;;20.37;100.00;98713.19;15272740;19;20011;-57
2022/07/23 20:58:16;;;;;;;2.45;1.10;;;;;;;20.27;100.00;98721.91;15282373;19;20009;-56
2022/07/23 21:03:21;;;;;;;3.22;1.00;;;;;;;20.13;100.00;98721.09;15251195;19;20006;-55
2022/07/23 21:08:28;;;;;;;3.08;0.90;;;;;;;20.07;100.00;98721.13;15276361;19;20015;-60
2022/07/23 21:13:36;;;;;;;1.42;1.00;;;;;;;20.04;100.00;98727.03;15271588;19;20085;-59
2022/07/23 21:18:41;;;;;;;1.75;1.00;;;;;;;20.01;100.00;98725.56;15280756;19;20481;-58
2022/07/23 21:23:51;;;;;;;1.50;0.50;;;;;;;20.00;100.00;98734.81;15277060;19;20014;-59
2022/07/23 21:28:59;;;;;;;2.22;0.80;;;;;;;19.90;100.00;98742.63;15273237;19;20042;-60
2022/07/23 21:34:05;;;;;;;2.15;0.80;;;;;;;19.74;100.00;98749.34;15280448;19;20412;-60
2022/07/23 21:39:10;;;;;;;1.38;0.90;;;;;;;19.55;100.00;98757.38;15278442;19;20027;-61
2022/07/23 21:44:20;;;;;;;2.17;0.95;;;;;;;19.47;100.00;98758.44;15279862;19;20022;-61
2022/07/23 21:49:25;;;;;;;2.80;0.90;;;;;;;19.35;100.00;98758.22;15269024;19;20019;-60
2022/07/23 21:54:31;;;;;;;1.52;0.90;;;;;;;19.27;100.00;98758.44;15274392;19;20003;-60
2022/07/23 21:59:39;;;;;;;2.17;1.00;;;;;;;19.16;100.00;98759.91;15277625;19;20482;-61
2022/07/23 22:04:46;;;;;;;1.77;0.90;;;;;;;19.04;100.00;98767.88;15280944;19;20043;-60
2022/07/23 22:09:52;;;;;;;1.90;0.90;;;;;;;18.96;100.00;98773.53;15269091;19;20439;-58
2022/07/23 22:15:10;;;;;;;2.10;1.10;;;;;;;18.86;100.00;98770.34;15270171;19;20078;-60
2022/07/23 22:20:16;;;;;;;3.72;1.00;;;;;;;18.66;100.00;98765.66;15268605;19;20040;-58
2022/07/23 22:25:22;;;;;;;2.80;1.00;;;;;;;18.57;100.00;98772.34;15279261;19;20018;-60
2022/07/23 22:30:33;;;;;;;2.35;0.90;;;;;;;18.55;100.00;98777.16;15270388;19;20442;-60
2022/07/23 22:35:39;;;;;;;1.80;0.80;;;;;;;18.46;100.00;98780.06;15279128;19;20539;-59
2022/07/23 22:40:50;;;;;;;1.63;1.00;;;;;;;18.39;100.00;98781.09;15275181;19;20018;-59
2022/07/23 22:45:59;;;;;;;0.93;0.80;;;;;;;18.32;100.00;98786.50;15276827;19;20436;-58
2022/07/23 22:51:05;;;;;;;2.90;0.73;;;;;;;18.23;100.00;98779.56;15269480;19;20053;-59
2022/07/23 22:56:10;;;;;;;1.20;0.55;;;;;;;18.16;100.00;98774.06;15275958;19;20024;-59
2022/07/23 23:01:17;;;;;;;0.68;0.45;;;;;;;18.09;100.00;98775.91;15269376;19;20042;-59
2022/07/23 23:06:22;;;;;;;2.17;0.50;;;;;;;18.12;100.00;98776.34;15287155;19;20528;-59
2022/07/23 23:11:27;;;;;;;1.63;0.40;;;;;;;18.09;100.00;98776.75;15287583;19;20141;-58
2022/07/23 23:16:35;;;;;;;2.83;0.73;;;;;;;18.01;100.00;98771.47;15290168;19;20019;-59
2022/07/23 23:21:43;;;;;;;2.10;0.80;;;;;;;17.89;100.00;98778.50;15281021;19;20042;-58
2022/07/23 23:26:48;;;;;;;2.15;0.82;;;;;;;17.75;100.00;98780.28;15291951;19;20007;-56
2022/07/23 23:31:56;;;;;;;3.10;1.00;;;;;;;17.62;100.00;98781.03;15281680;19;20022;-59
2022/07/23 23:37:01;;;;;;;1.67;0.80;;;;;;;17.52;100.00;98781.38;15290248;19;20115;-60
2022/07/23 23:42:06;;;;;;;1.45;0.90;;;;;;;17.36;100.00;98779.75;15286046;19;20025;-57
2022/07/23 23:47:14;;;;;;;1.85;0.82;;;;;;;17.17;100.00;98784.84;15288105;19;20094;-59
2022/07/23 23:52:19;;;;;;;1.05;0.70;;;;;;;17.08;100.00;98773.25;15281309;19;20035;-59
2022/07/23 23:57:24;;;;;;;1.23;0.70;;;;;;;17.02;100.00;98781.34;15282181;19;20013;-58
